Time;durP1;ratioP1;P1;durP2;ratioP2;P2;SDS_P1;SDS_P2;PMS_P1;PMS_P2;Temp;Humidity;BMP_temperature;BMP_pressure;BME280_temperature;BME280_humidity;BME280_pressure;Samples;Min_cycle;Max_cycle;Signal;HPM_P1;HPM_P2
2022/07/06 00:02:08;;;;;;;13.10;11.80;;;;;;;22.14;100.00;94808.34;5076055;28;20441;-85
2022/07/06 00:04:35;;;;;;;16.10;12.30;;;;;;;22.11;100.00;94794.56;5076231;28;20433;-83
2022/07/06 00:07:04;;;;;;;13.93;12.63;;;;;;;22.16;99.96;94792.91;5076444;28;20449;-85
2022/07/06 00:09:31;;;;;;;15.80;13.37;;;;;;;22.28;100.00;94798.50;5041367;28;20469;-83
2022/07/06 00:11:58;;;;;;;14.63;13.33;;;;;;;22.18;99.18;94804.22;5077398;28;20437;-84
2022/07/06 00:14:25;;;;;;;14.73;13.37;;;;;;;21.91;100.00;94808.66;5077076;28;20441;-84
2022/07/06 00:16:54;;;;;;;15.57;13.90;;;;;;;21.69;100.00;94815.19;5078282;28;20449;-84
2022/07/06 00:19:20;;;;;;;15.23;13.93;;;;;;;21.52;100.00;94816.53;5076840;28;20492;-85
2022/07/06 00:21:49;;;;;;;14.53;13.30;;;;;;;21.44;100.00;94806.88;5076781;28;20452;-84
2022/07/06 00:24:17;;;;;;;16.47;14.90;;;;;;;21.52;100.00;94814.69;5076737;28;20429;-85
2022/07/06 00:26:45;;;;;;;16.07;14.60;;;;;;;21.51;100.00;94826.41;5077231;28;21049;-85
2022/07/06 00:29:11;;;;;;;14.70;13.30;;;;;;;21.56;100.00;94815.94;5076803;28;20442;-84
2022/07/06 00:31:38;;;;;;;14.60;13.20;;;;;;;21.60;100.00;94819.84;5076524;28;20439;-84
2022/07/06 00:34:05;;;;;;;14.87;13.40;;;;;;;21.65;100.00;94828.09;5076390;28;20456;-83
2022/07/06 00:36:32;;;;;;;15.17;13.77;;;;;;;21.69;100.00;94830.38;5076991;28;20456;-84
2022/07/06 00:38:59;;;;;;;15.73;14.00;;;;;;;21.82;100.00;94844.59;5058248;28;20437;-84
2022/07/06 00:41:27;;;;;;;15.93;12.53;;;;;;;21.87;100.00;94842.16;5076335;28;20464;-80
2022/07/06 00:43:56;;;;;;;14.33;12.90;;;;;;;21.85;100.00;94843.38;5076695;28;20441;-84
2022/07/06 00:50:18;;;;;;;22.37;14.40;;;;;;;21.62;100.00;94844.50;5076210;28;20461;-84
2022/07/06 00:52:46;;;;;;;17.63;15.43;;;;;;;21.53;100.00;94835.03;5076484;28;20429;-84
2022/07/06 00:55:15;;;;;;;17.43;15.67;;;;;;;21.45;100.00;94831.72;5076395;28;20433;-83
2022/07/06 00:57:43;;;;;;;18.33;16.30;;;;;;;21.48;100.00;94837.47;5075861;28;20452;-84
2022/07/06 01:00:13;;;;;;;18.40;16.47;;;;;;;21.50;100.00;94829.28;5075868;28;20485;-80
2022/07/06 01:02:40;;;;;;;16.60;14.43;;;;;;;21.42;100.00;94822.25;5024674;28;20442;-83
2022/07/06 01:05:10;;;;;;;19.30;17.43;;;;;;;21.49;100.00;94820.44;5075983;28;20433;-83
2022/07/06 01:07:37;;;;;;;22.10;15.70;;;;;;;21.47;100.00;94819.00;5076373;28;20448;-83
2022/07/06 01:10:06;;;;;;;16.43;14.93;;;;;;;21.44;100.00;94804.19;5076785;28;20503;-83
2022/07/06 01:12:35;;;;;;;17.27;14.97;;;;;;;21.52;100.00;94809.34;5075784;28;21027;-82
2022/07/06 01:15:04;;;;;;;16.77;15.13;;;;;;;21.59;100.00;94802.19;5076564;28;20438;-84
2022/07/06 01:17:31;;;;;;;16.47;14.93;;;;;;;21.69;100.00;94806.34;5040843;28;20943;-83
2022/07/06 01:19:58;;;;;;;18.63;14.43;;;;;;;21.76;100.00;94810.69;5075847;28;20473;-84
2022/07/06 01:22:27;;;;;;;15.63;14.23;;;;;;;21.82;100.00;94811.72;5075429;28;20429;-83
2022/07/06 01:24:53;;;;;;;19.33;15.00;;;;;;;21.86;100.00;94799.59;5075945;28;20437;-83
2022/07/06 01:27:20;;;;;;;19.00;15.33;;;;;;;21.93;100.00;94798.59;5075903;28;20441;-83
2022/07/06 01:29:47;;;;;;;24.07;16.00;;;;;;;22.00;100.00;94800.47;5075580;28;20425;-82
2022/07/06 01:32:14;;;;;;;17.37;15.77;;;;;;;22.08;100.00;94806.47;5075161;28;20449;-84
2022/07/06 01:34:42;;;;;;;16.17;14.77;;;;;;;22.11;100.00;94803.41;5075579;28;20422;-82
2022/07/06 01:37:09;;;;;;;17.53;15.63;;;;;;;22.17;100.00;94796.41;5075421;28;20472;-82
2022/07/06 01:39:37;;;;;;;15.70;14.00;;;;;;;22.28;100.00;94800.34;5040490;28;20430;-84
2022/07/06 01:42:05;;;;;;;15.80;14.30;;;;;;;22.31;100.00;94800.75;5040274;28;20480;-83
2022/07/06 01:44:31;;;;;;;16.17;14.43;;;;;;;22.36;100.00;94803.63;5056885;28;20785;-84
2022/07/06 01:46:58;;;;;;;19.50;14.90;;;;;;;22.39;100.00;94802.41;5075399;28;20817;-85
2022/07/06 01:49:25;;;;;;;20.80;15.43;;;;;;;22.45;100.00;94796.22;5075291;28;20452;-84
2022/07/06 01:51:52;;;;;;;16.33;14.80;;;;;;;22.52;100.00;94805.88;5075372;28;20839;-84
2022/07/06 01:54:19;;;;;;;16.70;15.00;;;;;;;22.58;100.00;94806.94;5075243;28;20425;-84
2022/07/06 01:56:47;;;;;;;17.40;15.47;;;;;;;22.56;100.00;94807.16;5075278;28;20448;-84
2022/07/06 01:59:14;;;;;;;17.70;15.97;;;;;;;22.61;100.00;94819.91;5075060;28;20442;-84
2022/07/06 02:01:41;;;;;;;20.57;16.03;;;;;;;22.61;100.00;94814.56;5074831;28;20485;-85
2022/07/06 02:04:08;;;;;;;21.63;16.80;;;;;;;22.64;100.00;94826.69;5074771;28;20445;-84
2022/07/06 02:06:35;;;;;;;18.47;15.80;;;;;;;22.61;100.00;94827.94;5056341;28;20434;-84
2022/07/06 02:09:01;;;;;;;19.07;17.33;;;;;;;22.57;100.00;94824.03;5073852;28;20559;-84
2022/07/06 02:11:29;;;;;;;26.57;22.63;;;;;;;22.50;100.00;94832.03;5073819;28;20456;-84
2022/07/06 02:13:57;;;;;;;25.30;22.67;;;;;;;22.36;100.00;94829.56;5073574;28;21111;-84
2022/07/06 02:16:24;;;;;;;24.53;21.40;;;;;;;22.23;100.00;94825.81;5073531;28;20449;-82
2022/07/06 02:18:51;;;;;;;24.10;19.13;;;;;;;22.07;100.00;94818.19;5073116;28;20529;-84
2022/07/06 02:21:18;;;;;;;24.53;21.00;;;;;;;21.91;100.00;94830.03;5073614;28;20481;-84
2022/07/06 02:23:45;;;;;;;26.70;20.47;;;;;;;21.87;100.00;94842.16;5054854;28;20452;-84
2022/07/06 02:26:11;;;;;;;24.83;19.53;;;;;;;21.87;100.00;94836.81;5073936;28;20979;-84
2022/07/06 02:28:38;;;;;;;20.13;18.13;;;;;;;21.91;100.00;94839.91;5073358;28;20437;-85
2022/07/06 02:31:07;;;;;;;18.17;16.30;;;;;;;21.98;100.00;94839.94;5073076;28;20453;-84
2022/07/06 02:33:34;;;;;;;20.83;18.70;;;;;;;22.01;100.00;94831.50;5073747;28;20453;-84
2022/07/06 02:36:01;;;;;;;19.20;17.17;;;;;;;22.03;100.00;94824.94;5073653;28;20461;-85
2022/07/06 02:38:28;;;;;;;20.67;17.53;;;;;;;22.05;100.00;94830.13;5073161;28;20947;-83
2022/07/06 02:40:55;;;;;;;19.60;17.57;;;;;;;22.07;100.00;94825.38;5073356;28;20507;-85
2022/07/06 02:43:21;;;;;;;19.90;16.50;;;;;;;22.04;100.00;94831.97;5073506;28;20438;-84
2022/07/06 02:45:48;;;;;;;22.13;15.87;;;;;;;22.02;100.00;94833.97;5073092;28;20446;-84
2022/07/06 02:48:17;;;;;;;18.37;14.93;;;;;;;22.00;100.00;94833.38;5073001;28;20457;-85
2022/07/06 02:50:44;;;;;;;16.70;15.10;;;;;;;21.98;100.00;94835.41;5073154;28;20465;-84
2022/07/06 02:53:11;;;;;;;17.23;15.37;;;;;;;21.95;100.00;94830.44;5072794;28;20454;-85
2022/07/06 02:55:38;;;;;;;14.53;13.13;;;;;;;21.94;100.00;94821.59;5073088;28;20874;-85
2022/07/06 02:58:04;;;;;;;16.67;14.97;;;;;;;21.95;100.00;94827.78;5073378;28;20428;-85
2022/07/06 03:00:31;;;;;;;16.93;15.20;;;;;;;21.97;100.00;94820.38;5072894;28;20485;-83
2022/07/06 03:02:58;;;;;;;15.00;13.57;;;;;;;22.01;100.00;94816.31;5072934;28;20456;-85
2022/07/06 03:05:27;;;;;;;18.07;14.03;;;;;;;22.00;100.00;94817.34;5071863;28;20453;-84
2022/07/06 03:07:54;;;;;;;16.50;14.87;;;;;;;22.02;100.00;94823.28;5069704;28;20469;-84
2022/07/06 03:10:21;;;;;;;18.17;14.10;;;;;;;22.00;100.00;94814.66;5073359;28;20449;-85
2022/07/06 03:12:48;;;;;;;14.93;13.40;;;;;;;22.05;100.00;94817.56;5073495;28;21255;-85
2022/07/06 03:15:14;;;;;;;12.80;11.60;;;;;;;22.41;99.21;94817.22;5073523;28;20576;-83
2022/07/06 03:17:41;;;;;;;12.40;11.17;;;;;;;22.83;95.88;94817.84;5074628;28;20462;-85
2022/07/06 03:20:09;;;;;;;14.23;11.10;;;;;;;23.02;92.38;94814.34;5074520;28;20458;-80
2022/07/06 03:22:37;;;;;;;13.20;11.10;;;;;;;22.94;90.30;94824.44;5073176;28;20473;-85
2022/07/06 03:25:04;;;;;;;12.57;10.50;;;;;;;22.77;90.02;94824.81;5038626;28;20450;-85
2022/07/06 03:27:33;;;;;;;17.20;11.73;;;;;;;22.62;90.90;94829.56;5037562;28;20445;-84
2022/07/06 03:30:00;;;;;;;12.30;11.10;;;;;;;22.50;91.63;94837.38;5073423;28;20441;-85
2022/07/06 03:32:27;;;;;;;14.93;10.90;;;;;;;22.40;91.83;94839.63;5073529;28;20449;-85
2022/07/06 03:34:54;;;;;;;13.27;11.97;;;;;;;22.33;93.20;94837.97;5073592;28;20453;-85
2022/07/06 03:37:21;;;;;;;16.37;13.10;;;;;;;22.20;93.82;94839.59;5073464;28;20445;-86
2022/07/06 03:39:49;;;;;;;15.13;13.53;;;;;;;22.09;94.76;94839.38;5073027;28;20942;-85
2022/07/06 03:42:16;;;;;;;14.87;13.13;;;;;;;22.03;95.53;94846.31;5072465;28;20477;-85
2022/07/06 03:44:43;;;;;;;18.40;13.10;;;;;;;21.94;95.49;94852.84;5053709;28;20958;-85
2022/07/06 03:47:10;;;;;;;17.73;14.30;;;;;;;21.85;96.03;94848.72;5072679;28;20448;-85
2022/07/06 03:49:37;;;;;;;16.17;13.73;;;;;;;21.79;96.93;94847.69;5071675;28;20831;-84
2022/07/06 03:52:04;;;;;;;15.50;13.00;;;;;;;21.73;97.34;94843.13;5072188;28;20454;-85
2022/07/06 03:54:31;;;;;;;23.93;14.27;;;;;;;21.66;97.76;94839.59;5072151;28;20438;-82
2022/07/06 03:57:00;;;;;;;20.07;14.17;;;;;;;21.57;98.47;94852.31;5072091;28;20437;-84
2022/07/06 03:59:27;;;;;;;21.13;13.77;;;;;;;21.54;98.81;94850.03;5071916;28;20445;-84
2022/07/06 04:01:53;;;;;;;16.57;13.90;;;;;;;21.54;99.33;94852.69;5073357;28;21256;-85
2022/07/06 04:04:20;;;;;;;15.23;13.70;;;;;;;21.54;99.41;94846.53;5073809;28;20944;-85
2022/07/06 04:06:47;;;;;;;17.70;14.73;;;;;;;21.54;99.56;94850.03;5073033;28;20456;-86
2022/07/06 04:09:14;;;;;;;15.07;13.33;;;;;;;21.46;99.29;94842.19;5074541;28;20480;-88
2022/07/06 04:11:41;;;;;;;14.47;13.07;;;;;;;21.49;99.51;94851.66;5073887;28;20970;-88
2022/07/06 04:14:10;;;;;;;15.40;13.90;;;;;;;21.58;100.00;94851.28;5074497;28;20512;-87
2022/07/06 04:16:37;;;;;;;15.50;13.70;;;;;;;21.91;100.00;94862.09;5074547;28;20449;-89
2022/07/06 04:19:04;;;;;;;15.70;14.10;;;;;;;22.28;97.71;94867.19;5074256;28;20445;-87
2022/07/06 04:21:31;;;;;;;13.67;12.37;;;;;;;22.63;96.06;94868.66;5073325;28;20496;-88
2022/07/06 04:23:58;;;;;;;14.60;13.07;;;;;;;23.06;93.90;94871.78;5073686;28;20541;-87
2022/07/06 04:26:25;;;;;;;16.60;11.97;;;;;;;23.53;91.60;94866.34;5074795;28;20455;-86
2022/07/06 04:28:52;;;;;;;21.13;12.00;;;;;;;23.89;88.77;94872.00;5073579;28;20521;-87
2022/07/06 04:31:20;;;;;;;12.90;10.53;;;;;;;24.24;87.12;94867.09;5075856;28;20445;-86
2022/07/06 04:33:47;;;;;;;12.60;11.30;;;;;;;24.63;84.47;94874.13;5077642;28;20446;-87
2022/07/06 04:36:14;;;;;;;16.97;10.67;;;;;;;24.97;82.19;94872.00;5077235;28;20459;-86
2022/07/06 04:45:49;;;;;;;12.90;10.60;;;;;;;26.28;76.54;94882.41;5076196;28;20807;-84
2022/07/06 04:48:18;;;;;;;18.87;10.87;;;;;;;26.54;75.87;94894.72;5076779;28;20821;-85
2022/07/06 04:50:45;;;;;;;12.00;10.90;;;;;;;26.62;72.37;94894.41;5076742;28;20927;-86
2022/07/06 04:53:12;;;;;;;12.63;11.33;;;;;;;26.82;73.39;94899.50;5076908;28;20452;-84
2022/07/06 04:59:13;;;;;;;14.13;8.97;;;;;;;26.74;73.15;94915.97;5076624;28;20892;-87
2022/07/06 05:01:40;;;;;;;15.73;8.43;;;;;;;26.35;71.50;94917.38;5077393;28;20486;-87
2022/07/06 05:04:09;;;;;;;15.17;7.40;;;;;;;26.25;72.44;94912.47;5076450;28;20534;-87
2022/07/06 05:06:36;;;;;;;13.10;8.83;;;;;;;25.68;72.13;94919.94;5076616;28;20475;-87
2022/07/06 05:09:03;;;;;;;14.47;7.97;;;;;;;25.76;74.78;94924.25;5076635;28;20489;-88
2022/07/06 05:11:30;;;;;;;10.67;8.63;;;;;;;25.72;74.81;94925.69;5068751;28;20463;-86
2022/07/06 05:13:57;;;;;;;9.10;7.80;;;;;;;25.36;76.18;94923.75;5056919;28;20459;-87
2022/07/06 05:16:24;;;;;;;13.73;9.30;;;;;;;25.11;76.52;94921.88;5063452;28;20459;-86
2022/07/06 05:18:51;;;;;;;18.13;9.70;;;;;;;24.86;75.26;94923.69;5076337;28;20456;-88
2022/07/06 05:21:20;;;;;;;15.97;10.30;;;;;;;24.52;77.28;94920.41;5076283;28;20492;-87
2022/07/06 05:23:47;;;;;;;15.70;11.00;;;;;;;24.52;77.03;94923.09;5076278;28;20457;-87
2022/07/06 05:26:14;;;;;;;15.53;11.07;;;;;;;24.59;77.91;94931.94;5074531;28;20455;-86
2022/07/06 05:28:41;;;;;;;14.40;11.20;;;;;;;24.21;76.89;94933.75;5077153;28;20445;-85
2022/07/06 05:31:08;;;;;;;13.13;11.50;;;;;;;23.69;79.15;94935.56;5074866;28;20441;-87
2022/07/06 05:33:34;;;;;;;15.90;11.03;;;;;;;23.67;80.58;94940.31;5075512;28;20439;-88
2022/07/06 05:36:02;;;;;;;24.20;12.27;;;;;;;23.64;80.73;94936.19;5074851;28;20452;-86
2022/07/06 05:38:30;;;;;;;15.93;11.30;;;;;;;23.79;80.81;94934.09;5074807;28;20453;-85
2022/07/06 05:40:57;;;;;;;16.20;12.37;;;;;;;23.84;79.87;94938.84;5074527;28;20924;-87
2022/07/06 05:43:24;;;;;;;14.00;10.67;;;;;;;23.98;78.37;94937.75;5074244;28;20446;-88
2022/07/06 05:45:51;;;;;;;12.23;10.97;;;;;;;24.24;78.72;94942.19;5074805;28;20450;-86
2022/07/06 05:51:14;;;;;;;13.73;9.70;;;;;;;24.27;76.13;94941.75;5052074;28;20439;-86
2022/07/06 05:53:42;;;;;;;10.70;9.67;;;;;;;24.38;77.06;94945.69;5051925;28;20469;-86
2022/07/06 05:56:09;;;;;;;10.97;9.87;;;;;;;24.40;75.40;94947.09;5051195;28;20848;-86
2022/07/06 05:58:36;;;;;;;10.73;9.43;;;;;;;24.66;75.61;94948.00;5052189;28;20459;-87
2022/07/06 06:01:03;;;;;;;11.33;10.03;;;;;;;24.73;75.80;94956.00;5052088;28;20895;-84
2022/07/06 06:03:30;;;;;;;10.43;9.37;;;;;;;24.33;75.14;94938.28;5051813;28;20444;-86
2022/07/06 06:05:57;;;;;;;10.77;9.60;;;;;;;24.01;75.83;94948.06;5051956;28;20458;-87
2022/07/06 06:08:24;;;;;;;14.00;10.77;;;;;;;23.61;77.05;94947.34;5051475;28;20474;-86
2022/07/06 06:10:52;;;;;;;14.57;11.73;;;;;;;23.38;79.13;94950.41;5051838;28;20452;-85
2022/07/06 06:13:19;;;;;;;16.63;11.13;;;;;;;23.42;80.01;94948.16;5051984;28;20431;-86
2022/07/06 06:15:46;;;;;;;13.20;10.90;;;;;;;23.41;79.65;94941.97;5051569;28;20454;-86
2022/07/06 06:18:16;;;;;;;14.00;10.90;;;;;;;23.57;80.01;94940.75;5051555;28;20959;-87
2022/07/06 06:20:43;;;;;;;16.63;11.30;;;;;;;23.82;77.98;94940.91;5051700;28;20984;-84
2022/07/06 06:23:10;;;;;;;12.03;10.80;;;;;;;23.77;77.16;94946.06;5051388;28;20475;-86
2022/07/06 06:25:39;;;;;;;13.97;10.57;;;;;;;23.55;77.81;94945.47;5064292;28;20451;-86
2022/07/06 06:28:10;;;;;;;11.00;9.20;;;;;;;23.34;77.36;94945.69;5073713;28;20446;-86
2022/07/06 06:30:37;;;;;;;11.53;9.63;;;;;;;23.25;79.26;94936.22;5073454;28;20448;-86
2022/07/06 06:33:09;;;;;;;14.97;10.17;;;;;;;23.22;80.42;94944.69;5073244;28;20552;-87
2022/07/06 06:35:37;;;;;;;12.17;10.97;;;;;;;23.28;80.09;94947.34;5073648;28;20451;-85
2022/07/06 06:38:04;;;;;;;14.20;10.43;;;;;;;23.56;79.74;94940.97;5073346;28;20466;-86
2022/07/06 06:40:31;;;;;;;13.20;11.90;;;;;;;23.61;78.80;94925.06;5073562;28;20461;-86
2022/07/06 06:42:57;;;;;;;11.97;10.77;;;;;;;23.54;79.39;94937.63;5073439;28;20489;-88
2022/07/06 06:45:26;;;;;;;14.10;11.40;;;;;;;23.51;78.87;94933.53;5073316;28;20462;-87
2022/07/06 06:47:53;;;;;;;13.87;11.97;;;;;;;23.49;79.26;94932.91;5073575;28;20815;-85
2022/07/06 06:50:20;;;;;;;13.33;10.30;;;;;;;23.18;80.19;94936.22;5074101;28;20480;-86
2022/07/06 06:52:47;;;;;;;15.07;13.67;;;;;;;23.01;81.34;94935.00;5073634;28;20462;-87
2022/07/06 06:55:14;;;;;;;15.83;12.63;;;;;;;22.81;82.01;94935.78;5072341;28;20928;-86
2022/07/06 06:57:41;;;;;;;15.57;13.20;;;;;;;22.63;82.72;94932.88;5073538;28;20448;-86
2022/07/06 07:00:09;;;;;;;17.40;12.90;;;;;;;22.45;83.76;94938.78;5073236;28;20445;-88
2022/07/06 07:02:38;;;;;;;16.73;13.53;;;;;;;22.52;85.12;94930.78;5073638;28;20568;-85
2022/07/06 07:05:06;;;;;;;18.83;14.30;;;;;;;22.58;84.61;94929.16;5073294;28;20453;-86
2022/07/06 07:07:34;;;;;;;14.87;13.37;;;;;;;22.69;84.13;94931.22;5073669;28;20461;-87
2022/07/06 07:10:02;;;;;;;22.97;14.07;;;;;;;22.80;85.01;94928.75;5072928;28;20888;-86
2022/07/06 07:12:29;;;;;;;14.83;13.30;;;;;;;22.90;84.07;94930.25;5072639;28;20512;-85
2022/07/06 07:14:56;;;;;;;13.93;12.40;;;;;;;23.00;83.53;94934.16;5072934;28;20469;-86
2022/07/06 07:17:23;;;;;;;15.93;14.43;;;;;;;23.25;83.97;94931.69;5073184;28;20481;-87
2022/07/06 07:19:52;;;;;;;16.90;12.87;;;;;;;23.64;82.90;94928.16;5073190;28;20434;-86
2022/07/06 07:22:19;;;;;;;14.13;12.73;;;;;;;23.71;78.54;94928.97;5072517;28;20490;-88
2022/07/06 07:24:45;;;;;;;16.37;12.30;;;;;;;23.78;79.64;94921.75;5073186;28;20477;-85
2022/07/06 07:27:12;;;;;;;15.37;13.77;;;;;;;23.79;79.14;94917.22;5072971;28;20806;-87
2022/07/06 07:29:39;;;;;;;17.50;13.90;;;;;;;23.84;80.14;94920.06;5072977;28;20545;-86
2022/07/06 07:32:07;;;;;;;15.40;13.83;;;;;;;23.73;80.18;94918.06;5072851;28;20449;-87
2022/07/06 07:34:34;;;;;;;17.00;14.00;;;;;;;23.74;80.32;94923.19;5072901;28;20470;-87
2022/07/06 07:37:02;;;;;;;15.53;13.83;;;;;;;23.84;80.93;94924.63;5072881;28;20446;-86
2022/07/06 07:39:29;;;;;;;16.47;14.73;;;;;;;23.87;79.24;94918.81;5072496;28;20450;-87
2022/07/06 07:41:56;;;;;;;17.53;14.33;;;;;;;23.77;79.17;94913.91;5072706;28;20484;-86
2022/07/06 07:44:24;;;;;;;19.33;14.40;;;;;;;23.84;78.92;94925.44;5073092;28;20841;-84
2022/07/06 07:46:52;;;;;;;15.83;13.50;;;;;;;23.94;78.80;94923.13;5072682;28;20470;-85
2022/07/06 07:49:20;;;;;;;15.87;14.17;;;;;;;24.06;78.77;94924.13;5072560;28;20964;-86
2022/07/06 07:51:47;;;;;;;15.10;13.60;;;;;;;24.24;76.74;94925.28;5072310;28;20446;-85
2022/07/06 07:54:16;;;;;;;15.63;14.07;;;;;;;24.25;75.34;94924.22;5072474;28;20445;-88
2022/07/06 07:56:43;;;;;;;16.57;14.87;;;;;;;24.26;76.77;94929.38;5072255;28;20448;-85
2022/07/06 07:59:10;;;;;;;13.80;12.40;;;;;;;24.25;75.46;94922.38;5072425;28;20811;-86
2022/07/06 08:01:37;;;;;;;18.03;14.13;;;;;;;24.18;75.71;94920.75;5072733;28;20439;-86
2022/07/06 08:04:05;;;;;;;15.50;13.47;;;;;;;24.05;75.26;94927.84;5072319;28;20487;-83
2022/07/06 08:06:32;;;;;;;14.67;13.17;;;;;;;23.99;75.96;94923.31;5075556;28;20525;-86
2022/07/06 08:08:59;;;;;;;16.67;11.90;;;;;;;24.05;75.80;94922.47;5077126;28;20470;-87
2022/07/06 08:11:27;;;;;;;15.50;13.40;;;;;;;24.34;77.13;94926.50;5077046;28;20835;-87
2022/07/06 08:13:54;;;;;;;15.13;13.70;;;;;;;24.67;75.69;94929.00;5076433;28;20519;-85
2022/07/06 08:16:21;;;;;;;12.37;11.30;;;;;;;25.15;72.43;94931.16;5076561;28;20458;-85
2022/07/06 08:18:48;;;;;;;12.57;11.37;;;;;;;25.51;72.00;94926.94;5076119;28;20451;-85
2022/07/06 08:21:15;;;;;;;13.97;11.30;;;;;;;25.86;70.95;94935.28;5075934;28;20490;-87
2022/07/06 08:23:42;;;;;;;14.70;11.63;;;;;;;26.06;70.08;94933.19;5075683;28;20974;-87
2022/07/06 08:26:09;;;;;;;20.30;12.40;;;;;;;26.25;67.70;94928.59;5076145;28;20456;-84
2022/07/06 08:28:38;;;;;;;17.93;12.90;;;;;;;26.63;68.40;94936.44;5075859;28;20464;-84
2022/07/06 08:31:05;;;;;;;17.90;15.13;;;;;;;26.70;66.12;94942.53;5076232;28;20448;-87
2022/07/06 08:33:32;;;;;;;14.57;13.17;;;;;;;26.68;66.76;94941.97;5076042;28;20449;-86
2022/07/06 08:35:59;;;;;;;14.30;12.90;;;;;;;26.86;66.85;94935.69;5075782;28;20454;-86
2022/07/06 08:38:26;;;;;;;14.53;13.23;;;;;;;26.99;66.33;94924.75;5076118;28;20478;-88
2022/07/06 08:40:53;;;;;;;13.60;12.30;;;;;;;27.04;64.80;94932.97;5075486;28;20448;-88
2022/07/06 08:43:20;;;;;;;14.50;13.10;;;;;;;27.05;63.51;94934.59;5075558;28;20488;-86
2022/07/06 08:45:51;;;;;;;16.80;13.50;;;;;;;27.01;65.50;94925.34;5075806;28;20459;-87
2022/07/06 08:48:19;;;;;;;14.13;12.50;;;;;;;26.82;63.19;94934.50;5075912;28;20448;-87
2022/07/06 08:50:49;;;;;;;13.60;12.30;;;;;;;26.80;65.37;94926.66;5077920;28;20461;-87
2022/07/06 08:53:18;;;;;;;12.80;11.63;;;;;;;26.85;64.88;94923.25;5075647;28;21025;-87
2022/07/06 08:55:45;;;;;;;16.87;12.50;;;;;;;27.05;63.87;94926.53;5075423;28;20445;-86
2022/07/06 08:58:14;;;;;;;14.43;11.90;;;;;;;27.13;62.70;94926.16;5076071;28;20488;-87
2022/07/06 09:00:42;;;;;;;14.70;13.23;;;;;;;27.14;63.77;94927.81;5075715;28;20449;-86
2022/07/06 09:03:13;;;;;;;12.03;10.93;;;;;;;27.04;61.78;94932.13;5075196;28;20485;-85
2022/07/06 09:05:41;;;;;;;14.47;12.90;;;;;;;26.98;64.92;94933.84;5075490;28;20443;-86
2022/07/06 09:08:08;;;;;;;13.10;11.70;;;;;;;26.90;64.19;94926.13;5039639;28;20478;-87
2022/07/06 09:10:35;;;;;;;12.17;11.00;;;;;;;26.86;62.85;94935.69;5075334;28;20974;-87
2022/07/06 09:13:06;;;;;;;13.57;12.17;;;;;;;26.78;64.38;94934.13;5074835;28;20439;-87
2022/07/06 09:15:33;;;;;;;12.93;11.43;;;;;;;26.73;64.53;94931.31;5075314;28;20955;-86
2022/07/06 09:18:01;;;;;;;16.70;13.20;;;;;;;26.65;65.89;94925.44;5074153;28;20460;-85
2022/07/06 09:20:29;;;;;;;19.33;13.97;;;;;;;26.69;66.48;94923.94;5074927;28;20524;-88
2022/07/06 09:23:00;;;;;;;15.57;13.97;;;;;;;26.55;66.54;94925.97;5075139;28;20484;-85
2022/07/06 09:25:28;;;;;;;15.60;13.80;;;;;;;26.71;67.44;94917.25;5074835;28;20508;-86
2022/07/06 09:27:57;;;;;;;13.03;11.83;;;;;;;26.90;66.27;94923.41;5075369;28;20450;-87
2022/07/06 09:30:26;;;;;;;12.57;11.40;;;;;;;26.99;63.28;94919.38;5074602;28;20438;-86
2022/07/06 09:32:56;;;;;;;15.20;13.80;;;;;;;26.94;64.76;94931.84;5075160;28;20543;-86
2022/07/06 09:35:25;;;;;;;16.30;14.60;;;;;;;26.71;65.65;94919.97;5075550;28;20462;-89
2022/07/06 09:38:04;;;;;;;15.30;13.13;;;;;;;26.70;67.35;94915.63;5075071;28;20462;-86
2022/07/06 09:40:32;;;;;;;15.70;14.10;;;;;;;26.54;67.07;94922.47;5075072;28;20450;-88
2022/07/06 09:43:14;;;;;;;17.40;13.73;;;;;;;26.34;67.46;94921.09;5074507;28;20488;-89
2022/07/06 09:45:43;;;;;;;15.50;13.90;;;;;;;25.82;69.33;94910.72;5074926;28;20440;-88
2022/07/06 09:48:11;;;;;;;14.40;13.03;;;;;;;25.72;71.58;94910.38;5075068;28;20468;-86
2022/07/06 09:50:43;;;;;;;17.83;15.57;;;;;;;25.63;71.12;94896.41;5074831;28;20450;-86
2022/07/06 09:53:12;;;;;;;16.13;14.57;;;;;;;25.50;71.89;94890.34;5074584;28;20455;-86
2022/07/06 09:55:39;;;;;;;16.13;13.80;;;;;;;25.57;72.18;94899.16;5074419;28;20451;-86
2022/07/06 09:58:06;;;;;;;16.30;14.60;;;;;;;25.77;73.90;94889.06;5074615;28;20539;-86
2022/07/06 10:00:33;;;;;;;16.60;12.93;;;;;;;25.85;70.16;94894.13;5075398;28;20452;-87
2022/07/06 10:03:01;;;;;;;16.37;14.67;;;;;;;25.81;70.02;94895.63;5074293;28;20477;-85
2022/07/06 10:05:30;;;;;;;14.23;12.83;;;;;;;25.88;70.25;94893.69;5076861;28;20877;-87
2022/07/06 10:08:00;;;;;;;15.20;13.70;;;;;;;25.82;69.84;94897.28;5078318;28;20466;-86
2022/07/06 10:10:30;;;;;;;16.37;14.63;;;;;;;25.92;71.54;94889.50;5041512;28;20455;-87
2022/07/06 10:16:10;;;;;;;15.47;13.77;;;;;;;26.02;70.00;94890.81;5012589;28;20456;-87
2022/07/06 10:18:39;;;;;;;16.33;14.67;;;;;;;26.06;69.35;94887.47;5012455;28;20871;-86
2022/07/06 10:21:06;;;;;;;17.70;15.87;;;;;;;26.19;68.95;94892.69;5011676;28;20489;-87
2022/07/06 10:23:37;;;;;;;18.97;14.60;;;;;;;26.16;69.76;94887.75;5011786;28;20602;-87
2022/07/06 10:26:09;;;;;;;16.20;14.60;;;;;;;26.16;67.91;94884.25;5011642;28;20442;-86
2022/07/06 10:28:36;;;;;;;15.93;14.33;;;;;;;26.21;69.22;94879.00;5011574;28;20439;-86
2022/07/06 10:31:03;;;;;;;16.97;15.13;;;;;;;26.22;68.43;94875.25;5011729;28;20453;-85
2022/07/06 10:33:33;;;;;;;15.87;14.30;;;;;;;26.18;68.09;94863.31;5029507;28;20982;-85
2022/07/06 10:36:00;;;;;;;15.70;14.20;;;;;;;26.22;67.44;94878.78;5073978;28;20479;-86
2022/07/06 10:38:32;;;;;;;15.67;14.17;;;;;;;26.29;67.23;94889.44;5073345;28;20455;-86
2022/07/06 10:41:05;;;;;;;16.53;14.83;;;;;;;26.20;68.15;94885.44;5073424;28;20459;-86
2022/07/06 10:43:36;;;;;;;16.73;15.03;;;;;;;26.23;68.50;94874.22;5073600;28;20497;-87
2022/07/06 10:46:08;;;;;;;14.80;13.30;;;;;;;26.23;65.13;94883.09;5073073;28;20448;-87
2022/07/06 10:48:39;;;;;;;16.90;14.07;;;;;;;26.18;67.25;94877.59;5072863;28;20451;-86
2022/07/06 10:51:06;;;;;;;16.43;14.73;;;;;;;26.19;66.59;94865.78;5073487;28;20449;-86
2022/07/06 10:53:39;;;;;;;17.63;15.83;;;;;;;26.31;67.72;94879.31;5073181;28;20448;-87
2022/07/06 10:56:09;;;;;;;18.10;16.20;;;;;;;26.39;67.45;94879.00;5073481;28;20911;-87
2022/07/06 10:58:40;;;;;;;16.60;14.97;;;;;;;26.48;69.80;94876.81;5073093;28;20459;-86
2022/07/06 11:01:07;;;;;;;19.93;16.93;;;;;;;26.60;68.58;94877.69;5072962;28;20450;-85
2022/07/06 11:03:41;;;;;;;17.63;16.00;;;;;;;26.68;66.58;94879.22;5072865;28;20568;-86
2022/07/06 11:06:14;;;;;;;16.63;14.47;;;;;;;26.65;65.92;94877.00;5073039;28;20441;-86
2022/07/06 11:08:56;;;;;;;14.60;13.20;;;;;;;26.66;65.24;94878.63;5054992;28;20482;-86
2022/07/06 11:11:26;;;;;;;14.60;13.20;;;;;;;26.71;65.62;94870.69;5072987;28;20444;-88
2022/07/06 11:13:57;;;;;;;15.77;13.83;;;;;;;26.64;64.88;94878.84;5073014;28;20448;-87
2022/07/06 11:16:26;;;;;;;19.67;16.37;;;;;;;26.69;67.06;94870.09;5072894;28;20437;-85
2022/07/06 11:19:02;;;;;;;15.47;14.00;;;;;;;26.67;65.85;94866.81;5073144;28;20448;-86
2022/07/06 11:21:45;;;;;;;16.47;14.83;;;;;;;26.68;63.98;94873.84;5072623;28;20446;-86
2022/07/06 11:24:14;;;;;;;18.77;15.37;;;;;;;26.71;65.56;94868.81;5072889;28;20488;-87
2022/07/06 11:26:45;;;;;;;16.40;14.70;;;;;;;26.84;65.12;94854.31;5073252;28;20457;-86
2022/07/06 11:29:12;;;;;;;16.47;14.93;;;;;;;26.92;66.09;94864.75;5072910;28;20465;-87
2022/07/06 11:31:41;;;;;;;20.33;16.17;;;;;;;26.94;65.98;94859.97;5072992;28;20454;-85
2022/07/06 11:34:10;;;;;;;14.77;13.37;;;;;;;26.98;63.83;94861.13;5073010;28;20444;-86
2022/07/06 11:36:38;;;;;;;16.10;14.50;;;;;;;26.88;63.41;94857.34;5072704;28;20804;-86
2022/07/06 11:39:06;;;;;;;16.17;14.57;;;;;;;26.87;63.13;94845.75;5072359;28;20869;-85